createdAt,value
2022-09-13T00:01:26.431Z,14.90
2022-09-13T00:04:03.156Z,14.80
2022-09-13T00:06:32.146Z,14.80
2022-09-13T00:09:11.416Z,14.80
2022-09-13T00:11:53.599Z,14.80
2022-09-13T00:14:26.707Z,14.80
2022-09-13T00:16:55.490Z,14.80
2022-09-13T00:19:24.200Z,14.70
2022-09-13T00:21:52.979Z,14.70
2022-09-13T00:24:21.471Z,14.70
2022-09-13T00:26:50.286Z,14.70
2022-09-13T00:29:19.777Z,14.70
2022-09-13T00:31:50.225Z,14.70
2022-09-13T00:34:18.830Z,14.70
2022-09-13T00:36:47.548Z,14.70
2022-09-13T00:39:16.066Z,14.70
2022-09-13T00:41:44.792Z,14.70
2022-09-13T00:45:04.691Z,14.70
2022-09-13T00:47:43.054Z,14.70
2022-09-13T00:50:19.226Z,14.70
2022-09-13T00:52:53.233Z,14.60
2022-09-13T00:55:28.972Z,14.60
2022-09-13T00:58:06.370Z,14.60
2022-09-13T01:00:35.006Z,14.60
2022-09-13T01:03:11.952Z,14.60
2022-09-13T01:05:48.603Z,14.60
2022-09-13T01:08:22.553Z,14.50
2022-09-13T01:10:53.668Z,14.50
2022-09-13T01:13:25.311Z,14.50
2022-09-13T01:15:54.456Z,14.50
2022-09-13T01:18:25.034Z,14.40
2022-09-13T01:21:50.550Z,14.50
2022-09-13T01:25:17.601Z,14.50
2022-09-13T01:28:19.101Z,14.40
2022-09-13T01:30:58.967Z,14.30
2022-09-13T01:33:51.530Z,14.30
2022-09-13T01:36:56.673Z,14.30
2022-09-13T01:39:42.069Z,14.30
2022-09-13T01:42:21.472Z,14.20
2022-09-13T01:45:18.721Z,14.30
2022-09-13T01:47:57.828Z,14.30
2022-09-13T01:50:40.419Z,14.30
2022-09-13T01:53:22.083Z,14.30
2022-09-13T01:56:00.311Z,14.30
2022-09-13T01:58:39.205Z,14.30
2022-09-13T02:01:15.335Z,14.30
2022-09-13T02:03:55.778Z,14.30
2022-09-13T02:06:31.569Z,14.30
2022-09-13T02:09:06.201Z,14.30
2022-09-13T02:11:38.889Z,14.30
2022-09-13T02:14:15.283Z,14.30
2022-09-13T02:16:53.795Z,14.30
2022-09-13T02:19:34.043Z,14.30
2022-09-13T02:22:06.024Z,14.30
2022-09-13T02:24:39.529Z,14.30
2022-09-13T02:27:14.071Z,14.20
2022-09-13T02:29:48.348Z,14.20
2022-09-13T02:32:24.917Z,14.10
2022-09-13T02:35:02.746Z,14.10
2022-09-13T02:37:37.244Z,14.10
2022-09-13T02:40:12.998Z,14.10
2022-09-13T02:42:45.873Z,14.00
2022-09-13T02:45:16.607Z,14.00
2022-09-13T02:47:57.593Z,14.00
2022-09-13T02:50:48.363Z,14.00
2022-09-13T02:53:27.546Z,13.90
2022-09-13T02:56:07.838Z,13.90
2022-09-13T02:58:49.525Z,13.90
2022-09-13T03:01:19.552Z,13.90
2022-09-13T03:03:48.578Z,13.80
2022-09-13T03:06:25.453Z,13.80
2022-09-13T03:08:54.547Z,13.80
2022-09-13T03:11:42.826Z,13.80
2022-09-13T03:14:30.620Z,13.80
2022-09-13T03:17:18.775Z,13.70
2022-09-13T03:20:08.406Z,13.70
2022-09-13T03:23:24.626Z,13.80
2022-09-13T03:26:17.663Z,13.70
2022-09-13T03:28:58.421Z,13.70
2022-09-13T03:31:36.811Z,13.70
2022-09-13T03:34:14.012Z,13.60
2022-09-13T03:36:50.842Z,13.60
2022-09-13T03:39:36.025Z,13.60
2022-09-13T03:42:14.721Z,13.60
2022-09-13T03:44:48.217Z,13.40
2022-09-13T03:47:19.923Z,13.40
2022-09-13T03:49:51.900Z,13.40
2022-09-13T03:52:21.459Z,13.50
2022-09-13T03:54:53.420Z,13.50
2022-09-13T03:57:24.274Z,13.50
2022-09-13T03:59:57.003Z,13.50
2022-09-13T04:02:27.926Z,13.50
2022-09-13T04:04:56.488Z,13.50
2022-09-13T04:07:27.298Z,13.50
2022-09-13T04:09:57.250Z,13.50
2022-09-13T04:12:26.122Z,13.40
2022-09-13T04:14:54.633Z,13.40
2022-09-13T04:17:23.167Z,13.30
2022-09-13T04:19:51.602Z,13.30
2022-09-13T04:22:20.377Z,13.30
2022-09-13T04:24:48.859Z,13.30
2022-09-13T04:27:18.724Z,13.20
2022-09-13T04:29:47.171Z,13.10
2022-09-13T04:32:15.698Z,13.10
2022-09-13T04:34:44.729Z,13.10
2022-09-13T04:37:13.396Z,13.00
2022-09-13T04:39:41.937Z,13.10
2022-09-13T04:42:11.412Z,13.10
2022-09-13T04:44:41.495Z,13.10
2022-09-13T04:47:11.040Z,13.10
2022-09-13T04:49:40.143Z,13.20
2022-09-13T04:52:08.703Z,13.20
2022-09-13T04:54:37.964Z,13.20
2022-09-13T04:57:06.742Z,13.10
2022-09-13T04:59:35.222Z,13.00
2022-09-13T05:02:05.434Z,12.90
2022-09-13T05:04:33.963Z,12.90
2022-09-13T05:07:02.459Z,13.00
2022-09-13T05:09:30.878Z,13.00
2022-09-13T05:12:00.189Z,13.00
2022-09-13T05:14:28.610Z,13.10
2022-09-13T05:16:57.058Z,13.10
2022-09-13T05:19:27.000Z,13.10
2022-09-13T05:21:55.470Z,13.20
2022-09-13T05:24:24.042Z,13.20
2022-09-13T05:26:52.634Z,13.20
2022-09-13T05:29:26.348Z,13.30
2022-09-13T05:31:54.998Z,13.30
2022-09-13T05:34:23.589Z,13.40
2022-09-13T05:36:54.447Z,13.30
2022-09-13T05:39:34.143Z,13.40
2022-09-13T05:42:11.977Z,13.50
2022-09-13T05:44:40.497Z,13.60
2022-09-13T05:47:09.106Z,13.80
2022-09-13T05:49:51.097Z,13.90
2022-09-13T05:52:27.728Z,14.00
2022-09-13T05:54:56.170Z,14.20
2022-09-13T05:57:24.700Z,14.30
2022-09-13T05:59:53.151Z,14.50
2022-09-13T06:02:21.724Z,14.50
2022-09-13T06:04:50.890Z,14.60
2022-09-13T06:07:19.441Z,14.80
2022-09-13T06:09:49.703Z,14.90
2022-09-13T06:12:18.110Z,15.00
2022-09-13T06:14:46.576Z,15.20
2022-09-13T06:17:15.128Z,15.20
2022-09-13T06:19:44.518Z,15.30
2022-09-13T06:22:12.954Z,15.30
2022-09-13T06:24:41.419Z,15.30
2022-09-13T06:27:11.485Z,15.40
2022-09-13T06:29:39.916Z,15.50
2022-09-13T06:32:08.460Z,15.60
2022-09-13T06:34:36.883Z,15.80
2022-09-13T06:37:05.334Z,15.90
2022-09-13T06:39:34.362Z,15.90
2022-09-13T06:42:03.076Z,16.00
2022-09-13T06:44:32.866Z,15.90
2022-09-13T06:47:01.301Z,15.90
2022-09-13T06:49:31.569Z,16.00
2022-09-13T06:52:00.037Z,16.10
2022-09-13T06:54:28.466Z,16.20
2022-09-13T06:56:57.016Z,16.30
2022-09-13T06:59:25.667Z,16.30
2022-09-13T07:01:55.611Z,16.40
2022-09-13T07:04:24.147Z,16.50
2022-09-13T07:06:52.566Z,16.60
2022-09-13T07:09:23.232Z,16.80
2022-09-13T07:11:54.546Z,16.90
2022-09-13T07:14:26.193Z,17.00
2022-09-13T07:16:56.664Z,17.20
2022-09-13T07:19:31.481Z,17.30
2022-09-13T07:22:00.514Z,17.50
2022-09-13T07:24:29.073Z,17.70
2022-09-13T07:26:57.509Z,17.90
2022-09-13T07:29:26.189Z,18.20
2022-09-13T07:31:58.669Z,18.30
2022-09-13T07:34:28.482Z,18.50
2022-09-13T07:36:56.911Z,18.50
2022-09-13T07:39:25.347Z,18.70
2022-09-13T07:41:54.730Z,18.80
2022-09-13T07:44:23.234Z,19.00
2022-09-13T07:46:51.811Z,19.20
2022-09-13T07:49:21.857Z,19.40
2022-09-13T07:51:51.636Z,19.50
2022-09-13T07:54:21.701Z,19.70
2022-09-13T07:56:51.956Z,19.80
2022-09-13T07:59:21.175Z,20.10
2022-09-13T08:01:52.136Z,20.20
2022-09-13T08:04:26.942Z,20.40
2022-09-13T08:06:55.988Z,20.60
2022-09-13T08:09:24.579Z,20.90
2022-09-13T08:11:54.125Z,21.20
2022-09-13T08:14:24.669Z,21.60
2022-09-13T08:16:56.804Z,21.80
2022-09-13T08:19:26.934Z,22.00
2022-09-13T08:21:55.378Z,22.40
2022-09-13T08:24:24.101Z,22.60
2022-09-13T08:26:55.578Z,22.90
2022-09-13T08:29:25.322Z,23.30
2022-09-13T08:31:53.870Z,23.70
2022-09-13T08:34:22.414Z,23.90
2022-09-13T08:36:52.240Z,24.00
2022-09-13T08:39:20.666Z,24.10
2022-09-13T08:42:22.670Z,24.20
2022-09-13T08:44:55.923Z,24.30
2022-09-13T08:47:39.268Z,24.50
2022-09-13T08:50:18.840Z,24.80
2022-09-13T08:53:04.337Z,25.10
2022-09-13T08:55:48.906Z,25.50
2022-09-13T08:58:57.186Z,25.70
2022-09-13T09:01:43.307Z,25.90
2022-09-13T09:04:32.508Z,26.30
2022-09-13T09:07:07.575Z,26.70
2022-09-13T09:09:46.681Z,26.90
2022-09-13T09:12:29.851Z,27.30
2022-09-13T09:15:07.400Z,27.60
2022-09-13T09:17:51.309Z,28.00
2022-09-13T09:20:33.749Z,28.40
2022-09-13T09:23:12.261Z,28.70
2022-09-13T09:25:42.130Z,29.00
2022-09-13T09:28:15.014Z,29.30
2022-09-13T09:30:59.839Z,29.50
2022-09-13T09:33:47.457Z,29.50
2022-09-13T09:36:25.506Z,29.50
2022-09-13T09:38:55.677Z,29.50
2022-09-13T09:41:30.138Z,29.50
2022-09-13T09:44:07.096Z,29.50
2022-09-13T09:46:41.635Z,29.80
2022-09-13T09:49:36.362Z,30.10
2022-09-13T09:52:09.192Z,30.10
2022-09-13T09:54:39.197Z,30.20
2022-09-13T09:57:09.580Z,30.30
2022-09-13T09:59:38.001Z,30.30
2022-09-13T10:02:20.611Z,30.60
2022-09-13T10:05:02.335Z,30.90
2022-09-13T10:07:36.411Z,31.20
2022-09-13T10:10:21.567Z,31.20
2022-09-13T10:12:56.041Z,31.20
2022-09-13T10:15:29.666Z,31.10
2022-09-13T10:18:42.210Z,31.00
2022-09-13T10:21:21.422Z,30.90
2022-09-13T10:23:52.074Z,30.60
2022-09-13T10:26:24.409Z,30.20
2022-09-13T10:29:02.199Z,30.00
2022-09-13T10:31:36.553Z,30.00
2022-09-13T10:34:08.798Z,29.90
2022-09-13T10:36:52.074Z,30.10
2022-09-13T10:39:25.017Z,30.20
2022-09-13T10:41:58.600Z,30.60
2022-09-13T10:44:41.465Z,31.10
2022-09-13T10:47:20.536Z,31.50
2022-09-13T10:49:55.678Z,31.80
2022-09-13T10:52:35.204Z,32.00
2022-09-13T10:55:39.135Z,31.90
2022-09-13T10:58:21.097Z,32.00
2022-09-13T11:01:26.619Z,32.50
2022-09-13T11:04:37.391Z,33.30
2022-09-13T11:07:36.878Z,34.00
2022-09-13T11:10:18.266Z,34.20
2022-09-13T11:12:59.260Z,34.10
2022-09-13T11:15:51.963Z,34.30
2022-09-13T11:19:02.216Z,34.60
2022-09-13T11:21:50.384Z,34.90
2022-09-13T11:24:52.485Z,34.80
2022-09-13T11:27:36.992Z,34.50
2022-09-13T11:30:15.733Z,34.30
2022-09-13T11:33:16.382Z,34.30
2022-09-13T11:35:59.557Z,34.40
2022-09-13T11:38:57.090Z,34.60
2022-09-13T11:41:44.689Z,34.30
2022-09-13T11:44:58.134Z,34.00
2022-09-13T11:48:02.727Z,33.80
2022-09-13T11:50:48.199Z,33.70
2022-09-13T11:53:59.321Z,34.10
2022-09-13T11:56:34.643Z,34.60
2022-09-13T11:59:19.949Z,35.00
2022-09-13T12:01:55.983Z,35.50
2022-09-13T12:04:33.905Z,36.10
2022-09-13T12:07:09.529Z,36.60
2022-09-13T12:09:48.644Z,37.10
2022-09-13T12:12:17.523Z,37.40
2022-09-13T12:14:54.025Z,37.60
2022-09-13T12:17:30.774Z,37.80
2022-09-13T12:20:03.065Z,38.10
2022-09-13T12:22:36.188Z,38.10
2022-09-13T12:25:19.735Z,37.90
2022-09-13T12:27:58.552Z,37.70
2022-09-13T12:30:38.402Z,37.60
2022-09-13T12:33:08.100Z,37.30
2022-09-13T12:35:49.586Z,37.00
2022-09-13T12:38:49.160Z,37.20
2022-09-13T12:41:37.235Z,37.30
2022-09-13T12:44:33.405Z,37.10
2022-09-13T12:47:53.046Z,37.20
2022-09-13T12:50:50.067Z,37.40
2022-09-13T12:53:45.202Z,38.00
2022-09-13T12:56:48.692Z,38.20
2022-09-13T12:59:54.974Z,38.50
2022-09-13T13:02:34.853Z,38.80
2022-09-13T13:05:16.862Z,38.90
2022-09-13T13:07:55.842Z,39.00
2022-09-13T13:10:33.201Z,38.70
2022-09-13T13:13:23.573Z,38.30
2022-09-13T13:16:07.358Z,37.70
2022-09-13T13:18:48.614Z,37.00
2022-09-13T13:21:34.398Z,36.60
2022-09-13T13:24:46.393Z,35.90
2022-09-13T13:27:48.665Z,35.50
2022-09-13T13:30:53.694Z,35.00
2022-09-13T13:33:28.030Z,34.90
2022-09-13T13:35:56.954Z,35.10
2022-09-13T13:38:50.118Z,35.10
2022-09-13T13:41:45.865Z,35.60
2022-09-13T13:45:09.673Z,35.90
2022-09-13T13:48:13.200Z,36.30
2022-09-13T13:51:23.183Z,36.80
2022-09-13T13:53:57.931Z,37.20
2022-09-13T13:56:48.203Z,37.50
2022-09-13T13:59:26.190Z,37.60
2022-09-13T14:01:59.578Z,37.70
2022-09-13T14:05:10.464Z,37.80
2022-09-13T14:08:27.253Z,37.60
2022-09-13T14:11:10.581Z,36.70
2022-09-13T14:13:55.314Z,36.20
2022-09-13T14:16:44.039Z,35.70
2022-09-13T14:19:24.336Z,35.20
2022-09-13T14:22:19.398Z,34.70
2022-09-13T14:24:49.834Z,34.20
2022-09-13T14:27:23.211Z,33.80
2022-09-13T14:29:55.544Z,33.50
2022-09-13T14:32:32.161Z,33.00
2022-09-13T14:35:09.096Z,32.60
2022-09-13T14:37:42.652Z,32.40
2022-09-13T14:40:22.415Z,32.60
2022-09-13T14:42:52.573Z,33.30
2022-09-13T14:45:26.870Z,33.80
2022-09-13T14:48:02.124Z,33.70
2022-09-13T14:50:36.250Z,33.50
2022-09-13T14:53:09.623Z,33.50
2022-09-13T14:55:43.754Z,33.20
2022-09-13T14:58:22.915Z,32.90
2022-09-13T15:00:58.311Z,32.30
2022-09-13T15:03:28.124Z,32.00
2022-09-13T15:05:59.506Z,31.60
2022-09-13T15:08:46.968Z,31.40
2022-09-13T15:11:28.602Z,31.40
2022-09-13T15:14:22.363Z,31.70
2022-09-13T15:16:53.981Z,31.90
2022-09-13T15:19:38.873Z,31.90
2022-09-13T15:22:16.935Z,32.00
2022-09-13T15:24:50.751Z,32.30
2022-09-13T15:27:25.706Z,32.60
2022-09-13T15:29:57.585Z,32.40
2022-09-13T15:32:35.405Z,32.20
2022-09-13T15:35:04.236Z,31.90
2022-09-13T15:37:37.138Z,31.60
2022-09-13T15:40:25.065Z,31.30
2022-09-13T15:42:54.266Z,31.10
2022-09-13T15:45:23.937Z,30.80
2022-09-13T15:47:54.021Z,30.70
2022-09-13T15:50:27.031Z,30.60
2022-09-13T15:52:56.661Z,30.60
2022-09-13T15:55:28.702Z,30.50
2022-09-13T15:57:57.152Z,30.50
2022-09-13T16:00:28.669Z,30.40
2022-09-13T16:02:57.311Z,30.20
2022-09-13T16:05:26.092Z,29.70
2022-09-13T16:07:58.839Z,29.40
2022-09-13T16:10:30.213Z,28.90
2022-09-13T16:12:58.874Z,28.70
2022-09-13T16:15:28.309Z,28.40
2022-09-13T16:17:56.775Z,28.10
2022-09-13T16:20:27.774Z,27.80
2022-09-13T16:22:56.517Z,27.50
2022-09-13T16:25:25.033Z,27.30
2022-09-13T16:27:55.332Z,27.10
2022-09-13T16:30:24.423Z,26.90
2022-09-13T16:32:52.888Z,26.60
2022-09-13T16:35:21.301Z,26.50
2022-09-13T16:37:51.877Z,26.20
2022-09-13T16:40:20.933Z,26.10
2022-09-13T16:42:49.428Z,25.90
2022-09-13T16:45:19.689Z,25.70
2022-09-13T16:47:48.204Z,25.40
2022-09-13T16:50:17.073Z,25.40
2022-09-13T16:52:45.649Z,25.30
2022-09-13T16:55:14.461Z,25.30
2022-09-13T16:57:44.685Z,25.00
2022-09-13T17:00:15.473Z,24.40
2022-09-13T17:02:45.684Z,24.10
2022-09-13T17:05:14.407Z,24.10
2022-09-13T17:07:42.900Z,24.00
2022-09-13T17:10:12.932Z,24.00
2022-09-13T17:12:41.972Z,24.00
2022-09-13T17:15:11.765Z,24.10
2022-09-13T17:17:40.264Z,24.10
2022-09-13T17:20:14.268Z,24.00
2022-09-13T17:22:42.962Z,24.00
2022-09-13T17:25:12.022Z,24.00
2022-09-13T17:27:40.595Z,24.00
2022-09-13T17:30:12.498Z,23.90
2022-09-13T17:32:40.934Z,24.00
2022-09-13T17:35:12.150Z,23.80
2022-09-13T17:37:40.626Z,23.70
2022-09-13T17:40:10.122Z,23.40
2022-09-13T17:42:38.596Z,23.20
2022-09-13T17:45:07.949Z,23.10
2022-09-13T17:47:36.495Z,23.10
2022-09-13T17:50:05.388Z,23.00
2022-09-13T17:52:35.384Z,23.00
2022-09-13T17:55:04.838Z,23.00
2022-09-13T17:57:33.320Z,23.00
2022-09-13T18:00:05.651Z,22.90
2022-09-13T18:02:36.091Z,22.80
2022-09-13T18:05:10.598Z,22.80
2022-09-13T18:07:46.227Z,22.80
2022-09-13T18:10:38.733Z,22.90
2022-09-13T18:13:05.249Z,22.80
2022-09-13T18:15:39.509Z,22.80
2022-09-13T18:18:07.946Z,22.70
2022-09-13T18:20:40.475Z,22.70
2022-09-13T18:23:10.631Z,22.70
2022-09-13T18:25:39.109Z,22.60
2022-09-13T18:28:07.536Z,22.70
2022-09-13T18:30:35.982Z,22.70
2022-09-13T18:33:06.109Z,22.60
2022-09-13T18:35:37.127Z,22.60
2022-09-13T18:38:05.609Z,22.60
2022-09-13T18:40:35.514Z,22.60
2022-09-13T18:43:03.953Z,22.50
2022-09-13T18:45:32.432Z,22.50
2022-09-13T18:48:00.871Z,22.40
2022-09-13T18:50:29.345Z,22.30
2022-09-13T18:52:57.759Z,22.10
2022-09-13T18:55:26.242Z,22.00
2022-09-13T18:57:56.130Z,21.90
2022-09-13T19:00:25.288Z,21.90
2022-09-13T19:03:11.165Z,21.90
2022-09-13T19:05:41.212Z,21.90
2022-09-13T19:08:11.241Z,21.80
2022-09-13T19:10:40.133Z,21.80
2022-09-13T19:13:10.190Z,21.80
2022-09-13T19:15:39.257Z,21.80
2022-09-13T19:18:07.856Z,21.80
2022-09-13T19:20:36.428Z,21.60
2022-09-13T19:23:04.927Z,21.60
2022-09-13T19:25:36.219Z,21.60
2022-09-13T19:28:04.952Z,21.50
2022-09-13T19:30:37.394Z,21.40
2022-09-13T19:33:06.042Z,21.40
2022-09-13T19:35:37.162Z,21.30
2022-09-13T19:38:05.704Z,21.10
2022-09-13T19:40:34.227Z,21.00
2022-09-13T19:43:03.179Z,20.90
2022-09-13T19:45:31.733Z,20.80
2022-09-13T19:48:37.258Z,20.80
2022-09-13T19:50:54.364Z,20.80
2022-09-13T19:53:35.484Z,20.80
2022-09-13T19:56:14.376Z,20.80
2022-09-13T19:58:44.244Z,20.70
2022-09-13T20:01:16.230Z,20.60
2022-09-13T20:03:52.947Z,20.60
2022-09-13T20:06:23.345Z,20.60
2022-09-13T20:08:59.674Z,20.60
2022-09-13T20:11:29.250Z,20.40
2022-09-13T20:13:59.538Z,20.30
2022-09-13T20:16:32.249Z,20.30
2022-09-13T20:19:13.784Z,20.20
2022-09-13T20:21:53.042Z,20.20
2022-09-13T20:24:21.474Z,20.10
2022-09-13T20:26:52.282Z,20.00
2022-09-13T20:29:21.223Z,20.10
2022-09-13T20:31:49.710Z,20.10
2022-09-13T20:34:19.827Z,20.20
2022-09-13T20:36:48.414Z,20.10
2022-09-13T20:39:17.140Z,20.10
2022-09-13T20:41:46.624Z,20.10
2022-09-13T20:44:15.167Z,20.20
2022-09-13T20:46:43.964Z,20.20
2022-09-13T20:49:12.529Z,20.20
2022-09-13T20:51:42.558Z,20.20
2022-09-13T20:54:13.727Z,20.20
2022-09-13T20:56:42.491Z,20.20
2022-09-13T20:59:11.409Z,20.30
2022-09-13T21:01:40.738Z,20.30
2022-09-13T21:04:09.704Z,20.20
2022-09-13T21:07:02.684Z,20.00
2022-09-13T21:09:31.805Z,19.80
2022-09-13T21:12:01.311Z,19.80
2022-09-13T21:14:34.090Z,19.80
2022-09-13T21:17:06.710Z,19.80
2022-09-13T21:19:35.378Z,19.80
2022-09-13T21:22:05.528Z,19.80
2022-09-13T21:24:34.097Z,19.90
2022-09-13T21:27:02.756Z,19.90
2022-09-13T21:29:31.521Z,19.90
2022-09-13T21:32:00.158Z,20.00
2022-09-13T21:34:29.757Z,20.00
2022-09-13T21:36:58.253Z,20.00
2022-09-13T21:39:29.971Z,20.10
2022-09-13T21:41:58.742Z,20.00
2022-09-13T21:44:28.289Z,20.00
2022-09-13T21:46:56.913Z,20.10
2022-09-13T21:49:27.922Z,20.10
2022-09-13T21:51:56.783Z,20.10
2022-09-13T21:54:25.439Z,20.10
2022-09-13T21:56:56.119Z,20.10
2022-09-13T21:59:25.038Z,20.10
2022-09-13T22:01:55.001Z,20.00
2022-09-13T22:04:27.605Z,20.00
2022-09-13T22:06:59.411Z,19.90
2022-09-13T22:09:29.611Z,19.90
2022-09-13T22:12:00.862Z,19.70
2022-09-13T22:14:29.642Z,19.60
2022-09-13T22:16:58.286Z,19.60
2022-09-13T22:19:30.895Z,19.70
2022-09-13T22:22:01.354Z,19.80
2022-09-13T22:24:35.810Z,19.70
2022-09-13T22:27:07.281Z,19.80
2022-09-13T22:29:36.292Z,19.80
2022-09-13T22:32:06.900Z,19.70
2022-09-13T22:34:35.673Z,19.70
2022-09-13T22:37:04.396Z,19.80
2022-09-13T22:39:32.951Z,19.80
2022-09-13T22:42:01.555Z,19.80
2022-09-13T22:44:31.481Z,19.80
2022-09-13T22:47:00.613Z,19.90
2022-09-13T22:49:29.160Z,20.00
2022-09-13T22:51:57.705Z,20.00
2022-09-13T22:54:26.263Z,20.00
2022-09-13T22:56:54.795Z,19.90
2022-09-13T22:59:23.598Z,20.00
2022-09-13T23:01:53.513Z,20.00
2022-09-13T23:04:22.304Z,20.10
2022-09-13T23:06:50.821Z,20.10
2022-09-13T23:09:20.109Z,20.10
2022-09-13T23:11:48.920Z,20.10
2022-09-13T23:14:20.205Z,20.10
2022-09-13T23:16:51.831Z,20.10
2022-09-13T23:19:25.741Z,20.10
2022-09-13T23:21:55.573Z,20.10
2022-09-13T23:24:24.857Z,20.10
2022-09-13T23:26:57.109Z,20.10
2022-09-13T23:29:25.614Z,20.10
2022-09-13T23:31:57.169Z,20.10
2022-09-13T23:34:27.320Z,20.10
2022-09-13T23:36:56.043Z,20.10
2022-09-13T23:39:24.491Z,20.10
2022-09-13T23:41:53.204Z,20.00
2022-09-13T23:44:22.046Z,20.00
2022-09-13T23:46:51.140Z,20.00
2022-09-13T23:49:19.814Z,20.00
2022-09-13T23:51:50.110Z,20.10
2022-09-13T23:54:18.895Z,20.00
2022-09-13T23:56:50.195Z,20.10
2022-09-13T23:59:19.032Z,20.10
